INFORMACIÓN METAR y TAF
METAR FOR SECU
ADDS - METARS form results

(1912 UTC 12 December 2019)
Data provider http://aviationweather.gov/metar/data/
 
METAR text: SECU 121900Z 18014KT 9999 VCSH BKN040 BKN070 22/09 Q1021
Conditions at: SECU (CUENCA/MARISCAL , EC) observed 1900 UTC 12 December 2019
Temperature: 22.0°C (72°F)
Dewpoint: 9.0°C (48°F) [RH = 43%]
Pressure (altimeter): 30.15 inches Hg (1021.0 mb)
Winds: from the S (180 degrees) at 16 MPH (14 knots; 7.2 m/s)
Visibility: 6 or more miles (10+ km)
Ceiling: 4000 feet AGL
Clouds: broken clouds at 4000 feet AGL
broken clouds at 7000 feet AGL
Weather: VCSH  (showers in vicinity)

 MAPA DE AEROPUERTO

 INFORMACIÓN DE PISTA
Pista 05 Longitud 6234 ft Ancho 118 ft
Elevación 8306 ft Umbral desplazado 0 ft Rumbo de pista 52
Pista 23 Longitud 6234 ft Ancho 118 ft
Elevación 8256 ft Umbral desplazado 0 ft Rumbo de pista 232

 FRECUANCIAS DEL AEROPUERTO
Tipo APP Nombre APP/TWR Frecuencia 122.3 MHZ
Tipo GND Nombre GND Frecuencia 121.9 MHZ
Tipo RDO Nombre CUENCA RDO Frecuencia 126.9 MHZ

 RADIO AYUDAS DEL AEROPUERTO
Tipo NDB Nombre Cuenca Frecuencia 221 KHZ
Tipo VOR-DME Nombre Cuenca Frecuencia 114500 KHZ



Fly Ecuador Virtual 2018 | System by VAM